Lufkin, TX

1:27 PM CDT on August 30, 2014 (GMT -0500)
Cherokee County | Change Station
CLOSE
Current Station
Airport
Location: Jacksonville,
Elevation: 676 ft
Nearby Weather Stations

Elev 676 ft 31.87 °N, 95.22 °W | Updated 12 minutes ago

Mostly Cloudy
Mostly Cloudy
84 °F
Feels Like 89 °F
N
0
Wind Variable Wind from North

Today
High -- | Low -- °F
--% Chance of Precip.
Yesterday
High -- | Low -- °F
Precip. -- in
6:53 AM 7:44 PM
Waxing Crescent, 23% visible
Pressure 29.99 in
Visibility 10.0 miles
Clouds Scattered Clouds 2200 ft
Mostly Cloudy 3200 ft
Heat Index 89 °F
Dew Point 71 °F
Humidity 65%
Rainfall 0.00 in
Snow Depth Not available.
UV 6 out of 12
Pollen 6.00 out of 12
Air Quality Not available.
Flu Activity Not available.
METAR KJSO 301815Z AUTO 00000KT 10SM SCT022 BKN032 28/21 A2999 RMK AO2 T02880217

More Conditions Fewer Conditions

Pressure 29.99 in
Visibility 10.0 miles
Clouds Scattered Clouds 2200 ft
Mostly Cloudy 3200 ft
Heat Index 89 °F
Dew Point 71 °F
Humidity 65%
Rainfall 0.00 in
Snow Depth Not available.
UV 6 out of 12
Pollen 6.00 out of 12
Air Quality Not available.
Flu Activity Not available.
METAR KJSO 301815Z AUTO 00000KT 10SM SCT022 BKN032 28/21 A2999 RMK AO2 T02880217

More Conditions Fewer Conditions

Nowcast | as of 12:34 PM CDT on August 30, 2014

Light to moderate rain continues across much of north central and northeast Louisiana and into south central Arkansas east of El Dorado. The heaviest rainfall will occur from near Jena Louisiana northward through Monroe Louisiana...where an additional inch of rain is possible through 11 am. Elsewhere...showers and thunderstorms are developing across portions of deep East Texas into northwest Louisiana and will continue into this evening.

×

10-Day Weather Forecast

Almanac

Astronomy

Aug. 30, 2014 Rise Set
Actual Time 6:53 AM CDT 7:44 PM CDT
Civil Twilight 6:28 AM CDT 8:09 PM CDT
Nautical Twilight 5:59 AM CDT 8:38 PM CDT
Astronomical Twilight 5:29 AM CDT 9:08 PM CDT
Moon 11:21 AM CDT 10:41 PM CDT
Length of Visible Light 13h 40m
Length of Day
12h 51m
Tomorrow will be 1m 48s shorter.
Waxing Crescent, 23% of the Moon is Illuminated
Today
Waxing Crescent
Sep 2
First Quarter
Sep 8
Full
Sep 15
Last Quarter
Sep 24
New

Today's Extremes

State Highs State Lows

Community

WunderPhotos

Upload Photos

1,748,583 photos uploaded!

WunderBlogs® & News

Nearby

Snow Depth

Station Depth Elevation
No new snow has been reported.

Earthquake Activity

City Distance Mag. Time & Date
No recent earthquake activity has been reported nearby.
Minimum magnitude displayed is 2.5.

Coastal Water Temperatures

Place Temperature
No Stations Reporting

Nearby Weather Stations